createdAt,value
2017-11-13T00:01:41.241Z,40.90
2017-11-13T00:04:21.625Z,42.83
2017-11-13T00:06:53.875Z,38.50
2017-11-13T00:09:23.196Z,46.07
2017-11-13T00:11:53.966Z,43.20
2017-11-13T00:14:21.348Z,38.93
2017-11-13T00:16:50.600Z,37.83
2017-11-13T00:19:17.976Z,40.17
2017-11-13T00:21:53.092Z,38.73
2017-11-13T00:24:20.414Z,37.60
2017-11-13T00:27:00.899Z,39.67
2017-11-13T00:29:28.243Z,40.63
2017-11-13T00:31:58.598Z,38.57
2017-11-13T00:34:38.569Z,44.30
2017-11-13T00:37:05.901Z,38.03
2017-11-13T00:39:46.717Z,36.35
2017-11-13T00:42:14.049Z,35.77
2017-11-13T00:44:51.719Z,44.53
2017-11-13T00:47:19.069Z,39.10
2017-11-13T00:49:58.902Z,43.80
2017-11-13T00:52:31.165Z,35.97
2017-11-13T00:55:03.616Z,32.73
2017-11-13T00:57:32.938Z,34.00
2017-11-13T01:00:00.298Z,34.83
2017-11-13T01:02:27.669Z,32.10
2017-11-13T01:04:55.040Z,29.23
2017-11-13T01:07:23.379Z,31.40
2017-11-13T01:09:56.662Z,18.10
2017-11-13T01:12:24.975Z,20.73
2017-11-13T01:14:57.071Z,25.40
2017-11-13T01:17:28.780Z,22.93
2017-11-13T01:20:04.189Z,26.20
2017-11-13T01:22:32.434Z,19.40
2017-11-13T01:25:05.567Z,18.67
2017-11-13T01:27:32.940Z,23.67
2017-11-13T01:30:03.684Z,21.37
2017-11-13T01:32:33.300Z,16.07
2017-11-13T01:35:00.667Z,20.77
2017-11-13T01:37:39.031Z,15.90
2017-11-13T01:40:23.423Z,15.10
2017-11-13T01:42:52.144Z,19.40
2017-11-13T01:45:19.535Z,19.00
2017-11-13T01:47:52.082Z,17.07
2017-11-13T01:50:22.886Z,13.87
2017-11-13T01:52:53.656Z,13.93
2017-11-13T01:55:21.952Z,14.57
2017-11-13T01:57:53.906Z,18.33
2017-11-13T02:00:22.155Z,17.63
2017-11-13T02:02:55.926Z,19.43
2017-11-13T02:05:35.773Z,15.53
2017-11-13T02:08:15.650Z,14.67
2017-11-13T02:10:56.891Z,14.27
2017-11-13T02:13:27.907Z,15.87
2017-11-13T02:16:06.198Z,15.37
2017-11-13T02:18:35.502Z,14.97
2017-11-13T02:21:02.888Z,14.63
2017-11-13T02:26:26.554Z,14.30
2017-11-13T02:28:54.822Z,15.90
2017-11-13T02:31:24.173Z,17.87
2017-11-13T02:33:54.544Z,17.77
2017-11-13T02:36:23.587Z,17.63
2017-11-13T02:39:05.135Z,17.97
2017-11-13T02:41:37.314Z,17.50
2017-11-13T02:44:10.074Z,15.80
2017-11-13T02:46:43.333Z,16.27
2017-11-13T02:49:10.667Z,23.27
2017-11-13T02:51:51.038Z,19.30
2017-11-13T02:54:18.352Z,21.57
2017-11-13T02:56:45.703Z,18.90
2017-11-13T02:59:24.864Z,20.07
2017-11-13T03:01:55.724Z,18.60
2017-11-13T03:04:26.289Z,20.83
2017-11-13T03:06:54.546Z,27.87
2017-11-13T03:09:21.878Z,32.17
2017-11-13T03:11:51.094Z,21.93
2017-11-13T03:14:20.327Z,24.73
2017-11-13T03:17:00.691Z,22.77
2017-11-13T03:19:28.055Z,26.27
2017-11-13T03:21:56.304Z,22.47
2017-11-13T03:24:25.576Z,23.43
2017-11-13T03:26:54.802Z,24.70
2017-11-13T03:29:23.095Z,29.63
2017-11-13T03:31:53.473Z,26.90
2017-11-13T03:34:22.737Z,27.83
2017-11-13T03:36:58.902Z,26.47
2017-11-13T03:39:26.234Z,23.70
2017-11-13T03:42:04.509Z,24.80
2017-11-13T03:44:33.748Z,27.70
2017-11-13T03:47:01.108Z,25.97
2017-11-13T03:49:36.244Z,25.20
2017-11-13T03:52:03.574Z,28.73
2017-11-13T03:54:30.986Z,35.80
2017-11-13T03:57:03.989Z,25.63
2017-11-13T03:59:32.252Z,33.60
2017-11-13T04:02:00.472Z,30.13
2017-11-13T04:04:27.851Z,37.40
2017-11-13T04:06:55.170Z,30.73
2017-11-13T04:09:26.019Z,27.73
2017-11-13T04:11:53.376Z,29.83
2017-11-13T04:14:24.391Z,32.60
2017-11-13T04:16:51.727Z,28.83
2017-11-13T04:19:29.396Z,27.23
2017-11-13T04:22:00.255Z,25.23
2017-11-13T04:24:27.607Z,24.50
2017-11-13T04:26:59.858Z,21.57
2017-11-13T04:29:28.084Z,23.10
2017-11-13T04:32:00.083Z,20.80
2017-11-13T04:34:27.411Z,20.37
2017-11-13T04:36:54.758Z,15.40
2017-11-13T04:45:03.695Z,15.40
2017-11-13T04:47:31.038Z,14.47
2017-11-13T04:50:16.856Z,18.97
2017-11-13T04:52:44.184Z,16.37
2017-11-13T04:55:11.500Z,14.70
2017-11-13T04:57:50.118Z,16.40
2017-11-13T05:00:19.375Z,14.67
2017-11-13T05:02:53.264Z,13.23
2017-11-13T05:05:21.472Z,14.60
2017-11-13T05:07:54.684Z,15.20
2017-11-13T05:10:23.956Z,15.33
2017-11-13T05:12:51.307Z,11.60
2017-11-13T05:15:18.684Z,18.03
2017-11-13T05:17:54.515Z,12.07
2017-11-13T05:20:22.485Z,10.47
2017-11-13T05:22:49.804Z,11.80
2017-11-13T05:25:30.158Z,10.07
2017-11-13T05:28:02.462Z,13.40
2017-11-13T05:30:30.705Z,12.30
2017-11-13T05:33:02.708Z,12.37
2017-11-13T05:35:34.496Z,10.70
2017-11-13T05:38:09.551Z,9.30
2017-11-13T05:40:43.286Z,9.87
2017-11-13T05:46:03.579Z,7.87
2017-11-13T05:48:35.384Z,12.70
2017-11-13T05:51:12.955Z,11.47
2017-11-13T05:53:42.263Z,8.27
2017-11-13T05:56:19.462Z,10.00
2017-11-13T05:58:50.343Z,10.80
2017-11-13T06:01:17.742Z,10.37
2017-11-13T06:03:45.124Z,10.37
2017-11-13T06:06:12.462Z,11.30
2017-11-13T06:08:40.724Z,9.33
2017-11-13T06:11:08.067Z,10.90
2017-11-13T06:13:49.535Z,14.43
2017-11-13T06:16:20.846Z,11.57
2017-11-13T06:18:48.166Z,15.50
2017-11-13T06:21:15.560Z,14.83
2017-11-13T06:23:45.974Z,16.70
2017-11-13T06:26:24.256Z,18.03
2017-11-13T06:28:59.794Z,20.33
2017-11-13T06:31:34.619Z,22.53
2017-11-13T06:34:01.942Z,24.00
2017-11-13T06:36:29.291Z,23.30
2017-11-13T06:38:56.643Z,24.23
2017-11-13T06:41:27.391Z,23.70
2017-11-13T06:43:58.167Z,28.23
2017-11-13T06:49:11.731Z,31.00
2017-11-13T06:51:39.178Z,31.23
2017-11-13T06:54:16.498Z,35.53
2017-11-13T06:56:51.049Z,30.80
2017-11-13T06:59:25.976Z,32.70
2017-11-13T07:01:56.904Z,37.20
2017-11-13T07:04:29.430Z,40.00
2017-11-13T07:09:43.242Z,37.47
2017-11-13T07:12:10.598Z,35.70
2017-11-13T07:14:37.931Z,41.07
2017-11-13T07:17:07.191Z,41.23
2017-11-13T07:19:44.607Z,41.73
2017-11-13T07:22:15.634Z,35.33
2017-11-13T07:24:42.969Z,33.30
2017-11-13T07:27:17.620Z,36.80
2017-11-13T07:29:44.994Z,36.90
2017-11-13T07:32:16.034Z,36.07
2017-11-13T07:34:49.668Z,33.60
2017-11-13T07:37:17.104Z,36.73
2017-11-13T07:39:55.699Z,33.83
2017-11-13T07:42:36.972Z,38.73
2017-11-13T07:45:16.627Z,36.40
2017-11-13T07:47:58.275Z,34.80
2017-11-13T07:50:39.006Z,31.60
2017-11-13T07:53:09.259Z,36.13
2017-11-13T07:55:42.649Z,35.50
2017-11-13T07:58:17.118Z,34.20
2017-11-13T08:00:44.458Z,33.90
2017-11-13T08:03:11.823Z,36.07
2017-11-13T08:05:39.171Z,33.40
2017-11-13T08:08:06.522Z,32.50
2017-11-13T08:10:46.862Z,30.83
2017-11-13T08:13:30.726Z,31.87
2017-11-13T08:15:58.967Z,34.20
2017-11-13T08:18:29.727Z,33.07
2017-11-13T08:20:57.146Z,29.20
2017-11-13T08:23:28.335Z,29.33
2017-11-13T08:25:59.192Z,34.90
2017-11-13T08:28:26.506Z,30.80
2017-11-13T08:30:54.834Z,30.10
2017-11-13T08:33:28.073Z,30.23
2017-11-13T08:35:55.483Z,35.37
2017-11-13T08:38:22.922Z,34.97
2017-11-13T08:40:57.873Z,34.17
2017-11-13T08:43:25.211Z,32.60
2017-11-13T08:45:58.218Z,37.50
2017-11-13T08:48:33.653Z,32.47
2017-11-13T08:51:00.987Z,39.73
2017-11-13T08:53:28.380Z,37.73
2017-11-13T08:55:59.041Z,40.47
2017-11-13T08:58:29.707Z,34.37
2017-11-13T09:00:57.072Z,27.00
2017-11-13T09:03:37.214Z,33.87
2017-11-13T09:06:17.882Z,30.77
2017-11-13T09:08:45.227Z,33.17
2017-11-13T09:13:58.603Z,32.93
2017-11-13T09:16:34.503Z,27.50
2017-11-13T09:19:10.056Z,29.03
2017-11-13T09:24:30.362Z,30.60
2017-11-13T09:27:10.350Z,35.17
2017-11-13T09:29:38.160Z,31.80
2017-11-13T09:35:05.766Z,21.80
2017-11-13T09:37:47.412Z,22.47
2017-11-13T09:43:16.519Z,20.73
2017-11-13T09:45:45.748Z,17.97
2017-11-13T09:48:13.970Z,23.43
2017-11-13T09:50:41.304Z,21.47
2017-11-13T09:53:08.628Z,22.83
2017-11-13T09:55:39.291Z,18.83
2017-11-13T09:58:20.403Z,20.83
2017-11-13T10:01:00.999Z,19.87
2017-11-13T10:03:38.052Z,21.27
2017-11-13T10:08:51.687Z,24.80
2017-11-13T10:11:19.039Z,19.33
2017-11-13T10:14:03.063Z,23.97
2017-11-13T10:16:37.983Z,22.90
2017-11-13T10:19:08.814Z,19.83
2017-11-13T10:24:24.189Z,18.93
2017-11-13T10:26:53.599Z,21.43
2017-11-13T10:29:35.775Z,24.33
2017-11-13T10:32:06.298Z,19.60
2017-11-13T10:37:19.738Z,20.60
2017-11-13T10:39:56.923Z,22.43
2017-11-13T10:42:24.241Z,18.73
2017-11-13T10:45:04.327Z,18.63
2017-11-13T10:47:31.663Z,20.43
2017-11-13T10:49:59.878Z,20.87
2017-11-13T10:52:30.663Z,19.60
2017-11-13T10:55:12.750Z,20.20
2017-11-13T10:57:40.122Z,18.70
2017-11-13T11:00:07.605Z,18.50
2017-11-13T11:05:27.853Z,14.73
2017-11-13T11:07:59.819Z,19.60
2017-11-13T11:10:41.750Z,18.53
2017-11-13T11:13:15.816Z,16.50
2017-11-13T11:21:16.686Z,15.67
2017-11-13T11:24:02.326Z,16.83
2017-11-13T11:26:41.932Z,16.00
2017-11-13T11:29:22.582Z,16.83
2017-11-13T11:31:52.371Z,13.70
2017-11-13T11:34:33.687Z,11.93
2017-11-13T11:37:16.101Z,13.40
2017-11-13T11:39:50.294Z,13.30
2017-11-13T11:42:22.248Z,12.00
2017-11-13T11:44:59.219Z,13.33
2017-11-13T11:47:47.887Z,13.00
2017-11-13T11:50:18.368Z,12.63
2017-11-13T11:52:52.955Z,12.93
2017-11-13T11:55:35.575Z,15.37
2017-11-13T11:58:03.420Z,11.60
2017-11-13T12:00:30.760Z,12.57
2017-11-13T12:03:00.522Z,16.37
2017-11-13T12:05:33.012Z,12.50
2017-11-13T12:08:08.237Z,13.47
2017-11-13T12:10:39.099Z,12.37
2017-11-13T12:13:06.873Z,11.63
2017-11-13T12:15:34.563Z,10.77
2017-11-13T12:20:52.636Z,11.80
2017-11-13T12:23:26.244Z,10.97
2017-11-13T12:25:53.681Z,18.03
2017-11-13T12:28:27.718Z,11.87
2017-11-13T12:31:01.179Z,10.93
2017-11-13T12:33:29.067Z,10.20
2017-11-13T12:35:56.506Z,11.67
2017-11-13T12:38:36.862Z,9.57
2017-11-13T12:41:16.544Z,9.17
2017-11-13T12:43:43.881Z,9.80
2017-11-13T12:51:57.737Z,13.60
2017-11-13T12:54:35.761Z,10.77
2017-11-13T12:57:03.085Z,13.30
2017-11-13T12:59:30.409Z,10.03
2017-11-13T13:04:51.061Z,13.93
2017-11-13T13:07:30.604Z,8.90
2017-11-13T13:10:01.471Z,11.37
2017-11-13T13:12:42.487Z,9.40
2017-11-13T13:15:20.567Z,10.30
2017-11-13T13:17:48.181Z,8.67
2017-11-13T13:20:19.157Z,9.73
2017-11-13T13:22:47.884Z,9.10
2017-11-13T13:25:19.139Z,10.50
2017-11-13T13:27:53.270Z,9.07
2017-11-13T13:30:20.624Z,10.83
2017-11-13T13:32:47.969Z,8.00
2017-11-13T13:35:16.011Z,10.70
2017-11-13T13:43:17.031Z,9.87
2017-11-13T13:45:48.006Z,9.47
2017-11-13T13:48:19.542Z,9.40
2017-11-13T13:50:53.198Z,7.37
2017-11-13T13:53:30.613Z,11.10
2017-11-13T13:55:59.872Z,6.67
2017-11-13T13:58:32.882Z,6.90
2017-11-13T14:01:00.863Z,5.60
2017-11-13T14:06:19.667Z,5.97
2017-11-13T14:08:51.304Z,7.53
2017-11-13T14:11:24.429Z,6.90
2017-11-13T14:14:02.205Z,8.30
2017-11-13T14:16:33.213Z,10.30
2017-11-13T14:19:11.751Z,6.93
2017-11-13T14:21:39.092Z,9.53
2017-11-13T14:26:52.558Z,8.57
2017-11-13T14:29:20.233Z,11.27
2017-11-13T14:31:51.347Z,9.20
2017-11-13T14:34:28.679Z,9.07
2017-11-13T14:36:56.339Z,8.10
2017-11-13T14:39:24.550Z,8.90
2017-11-13T14:41:52.131Z,11.10
2017-11-13T14:44:20.199Z,7.93
2017-11-13T14:46:47.499Z,7.37
2017-11-13T14:49:14.833Z,8.20
2017-11-13T14:51:50.831Z,7.77
2017-11-13T14:57:08.239Z,6.50
2017-11-13T14:59:38.846Z,9.27
2017-11-13T15:02:09.467Z,7.87
2017-11-13T15:04:42.854Z,11.90
2017-11-13T15:07:10.183Z,13.93
2017-11-13T15:09:37.914Z,8.27
2017-11-13T15:12:08.860Z,8.13
2017-11-13T15:14:36.700Z,7.40
2017-11-13T15:17:17.753Z,14.30
2017-11-13T15:19:48.034Z,9.00
2017-11-13T15:22:25.661Z,7.43
2017-11-13T15:24:52.999Z,8.70
2017-11-13T15:27:23.926Z,9.33
2017-11-13T15:29:52.153Z,7.87
2017-11-13T15:32:19.455Z,6.47
2017-11-13T15:37:43.476Z,8.23
2017-11-13T15:40:11.342Z,9.50
2017-11-13T15:42:40.005Z,8.77
2017-11-13T15:45:15.363Z,8.13
2017-11-13T15:50:32.438Z,9.70
2017-11-13T15:55:45.895Z,16.73
2017-11-13T15:58:13.226Z,8.63
2017-11-13T16:00:47.461Z,9.10
2017-11-13T16:03:32.740Z,12.10
2017-11-13T16:06:02.296Z,8.10
2017-11-13T16:08:36.315Z,8.30
2017-11-13T16:11:04.030Z,7.90
2017-11-13T16:13:34.742Z,6.97
2017-11-13T16:16:06.492Z,9.50
2017-11-13T16:18:34.337Z,8.83
2017-11-13T16:26:34.217Z,7.73
2017-11-13T16:29:03.747Z,9.40
2017-11-13T16:31:49.530Z,12.10
2017-11-13T16:34:16.874Z,10.00
2017-11-13T16:36:48.334Z,13.80
2017-11-13T16:39:15.683Z,9.40
2017-11-13T16:41:43.106Z,11.00
2017-11-13T16:44:16.650Z,11.93
2017-11-13T16:49:32.317Z,10.97
2017-11-13T16:52:06.423Z,13.57
2017-11-13T16:54:50.878Z,13.33
2017-11-13T16:57:24.852Z,11.87
2017-11-13T16:59:53.077Z,15.03
2017-11-13T17:02:31.835Z,11.20
2017-11-13T17:05:06.383Z,14.93
2017-11-13T17:07:37.296Z,10.73
2017-11-13T17:10:14.520Z,14.00
2017-11-13T17:15:38.628Z,16.33
2017-11-13T17:18:06.026Z,24.43
2017-11-13T17:20:33.334Z,10.93
2017-11-13T17:23:11.775Z,12.97
2017-11-13T17:25:39.102Z,16.80
2017-11-13T17:28:18.209Z,13.70
2017-11-13T17:33:32.314Z,12.63
2017-11-13T17:36:01.939Z,14.77
2017-11-13T17:38:42.778Z,10.70
2017-11-13T17:41:13.920Z,12.60
2017-11-13T17:43:41.582Z,10.30
2017-11-13T17:46:14.958Z,10.33
2017-11-13T17:48:42.654Z,10.83
2017-11-13T17:51:16.176Z,11.17
2017-11-13T17:53:43.493Z,16.23
2017-11-13T17:59:04.328Z,13.00
2017-11-13T18:01:32.545Z,12.10
2017-11-13T18:04:03.853Z,14.37
2017-11-13T18:06:34.620Z,11.27
2017-11-13T18:09:01.941Z,16.50
2017-11-13T18:14:15.775Z,11.83
2017-11-13T18:19:41.940Z,12.30
2017-11-13T18:22:16.204Z,14.17
2017-11-13T18:24:51.701Z,10.03
2017-11-13T18:27:26.682Z,11.70
2017-11-13T18:32:52.950Z,7.37
2017-11-13T18:35:33.354Z,8.87
2017-11-13T18:38:00.711Z,12.90
2017-11-13T18:40:33.916Z,12.20
2017-11-13T18:43:11.608Z,10.93
2017-11-13T18:45:38.926Z,12.40
2017-11-13T18:48:09.333Z,15.87
2017-11-13T18:50:43.737Z,9.00
2017-11-13T18:53:17.283Z,10.23
2017-11-13T18:55:48.248Z,9.70
2017-11-13T19:01:13.170Z,15.70
2017-11-13T19:03:50.642Z,14.30
2017-11-13T19:06:28.640Z,11.80
2017-11-13T19:09:08.923Z,9.40
2017-11-13T19:11:36.287Z,12.87
2017-11-13T19:14:13.329Z,11.23
2017-11-13T19:16:40.731Z,9.27
2017-11-13T19:19:10.029Z,11.20
2017-11-13T19:21:37.368Z,15.80
2017-11-13T19:24:04.677Z,10.20
2017-11-13T19:26:32.070Z,8.63
2017-11-13T19:29:05.277Z,10.43
2017-11-13T19:31:44.916Z,9.43
2017-11-13T19:34:21.955Z,12.73
2017-11-13T19:36:51.251Z,9.73
2017-11-13T19:39:20.579Z,9.80
2017-11-13T19:41:47.942Z,10.10
2017-11-13T19:44:27.642Z,10.70
2017-11-13T19:46:55.024Z,10.57
2017-11-13T19:49:25.532Z,14.57
2017-11-13T19:52:09.575Z,15.80
2017-11-13T19:54:38.817Z,11.07
2017-11-13T19:57:13.310Z,10.60
2017-11-13T20:05:20.166Z,11.77
2017-11-13T20:10:41.334Z,10.67
2017-11-13T20:13:14.782Z,12.60
2017-11-13T20:15:42.219Z,13.70
2017-11-13T20:18:15.993Z,15.67
2017-11-13T20:21:00.154Z,26.60
2017-11-13T20:23:32.613Z,56.30
2017-11-13T20:28:50.035Z,20.53
2017-11-13T20:31:31.489Z,17.30
2017-11-13T20:34:06.378Z,17.40
2017-11-13T20:36:33.731Z,15.33
2017-11-13T20:39:01.119Z,18.60
2017-11-13T20:41:30.325Z,17.33
2017-11-13T20:44:11.233Z,13.50
2017-11-13T20:49:34.864Z,13.93
2017-11-13T20:52:02.197Z,13.77
2017-11-13T20:54:42.770Z,12.10
2017-11-13T20:57:16.609Z,14.07
2017-11-13T20:59:44.069Z,13.60
2017-11-13T21:02:12.334Z,11.63
2017-11-13T21:04:43.852Z,17.90
2017-11-13T21:10:05.035Z,18.00
2017-11-13T21:12:49.369Z,15.40
2017-11-13T21:15:27.416Z,13.37
2017-11-13T21:18:08.742Z,16.57
2017-11-13T21:20:36.479Z,20.80
2017-11-13T21:23:10.370Z,16.77
2017-11-13T21:25:37.725Z,18.90
2017-11-13T21:28:07.970Z,21.97
2017-11-13T21:30:35.326Z,22.23
2017-11-13T21:33:06.520Z,17.63
2017-11-13T21:38:26.539Z,18.10
2017-11-13T21:40:53.957Z,16.77
2017-11-13T21:43:21.274Z,20.43
2017-11-13T21:45:52.644Z,20.50
2017-11-13T21:51:06.120Z,17.67
2017-11-13T21:53:33.434Z,20.77
2017-11-13T21:56:00.830Z,16.23
2017-11-13T21:58:31.623Z,16.80
2017-11-13T22:00:59.006Z,20.83
2017-11-13T22:03:43.139Z,21.60
2017-11-13T22:06:10.487Z,17.63
2017-11-13T22:08:37.833Z,15.27
2017-11-13T22:11:12.951Z,22.40
2017-11-13T22:13:40.289Z,15.60
2017-11-13T22:16:07.621Z,21.23
2017-11-13T22:18:38.381Z,18.00
2017-11-13T22:21:12.010Z,18.13
2017-11-13T22:23:39.427Z,17.83
2017-11-13T22:26:06.743Z,18.60
2017-11-13T22:28:35.978Z,15.37
2017-11-13T22:31:04.222Z,17.97
2017-11-13T22:33:31.574Z,16.87
2017-11-13T22:36:06.471Z,18.07
2017-11-13T22:38:37.523Z,18.70
2017-11-13T22:41:04.954Z,17.37
2017-11-13T22:43:32.262Z,18.43
2017-11-13T22:46:05.835Z,19.30
2017-11-13T22:48:44.351Z,20.57
2017-11-13T22:51:11.748Z,16.17
2017-11-13T22:53:39.083Z,17.17
2017-11-13T22:56:16.234Z,17.43
2017-11-13T22:58:43.542Z,20.70
2017-11-13T23:01:10.908Z,20.00
2017-11-13T23:03:43.895Z,21.90
2017-11-13T23:06:11.286Z,22.63
2017-11-13T23:08:38.644Z,24.07
2017-11-13T23:11:06.006Z,19.13
2017-11-13T23:13:37.798Z,21.47
2017-11-13T23:16:05.174Z,22.53
2017-11-13T23:18:32.493Z,18.27
2017-11-13T23:20:59.905Z,17.13
2017-11-13T23:23:27.204Z,19.40
2017-11-13T23:28:47.519Z,19.53
2017-11-13T23:31:21.133Z,17.17
2017-11-13T23:33:58.754Z,17.90
2017-11-13T23:36:26.097Z,18.90
2017-11-13T23:38:57.136Z,19.60
2017-11-13T23:41:27.877Z,17.97
2017-11-13T23:43:55.211Z,20.77
2017-11-13T23:46:29.682Z,19.20
2017-11-13T23:49:02.531Z,27.60
2017-11-13T23:51:37.140Z,16.20
2017-11-13T23:54:04.505Z,23.67
2017-11-13T23:56:35.614Z,16.93
2017-11-13T23:59:16.536Z,21.10
